Time;durP1;ratioP1;P1;durP2;ratioP2;P2;SDS_P1;SDS_P2;PMS_P1;PMS_P2;Temp;Humidity;BMP_temperature;BMP_pressure;BME280_temperature;BME280_humidity;BME280_pressure;Samples;Min_cycle;Max_cycle;Signal;HPM_P1;HPM_P2
2023/04/12 00:02:23;;;;;;;6.90;1.77;;;9.10;99.90;;;;;;5069975;28;20743;-72
2023/04/12 00:04:54;;;;;;;3.40;1.73;;;9.00;99.90;;;;;;5070140;28;20636;-73
2023/04/12 00:07:29;;;;;;;3.13;1.40;;;8.90;99.90;;;;;;5069173;28;20707;-72
2023/04/12 00:09:55;;;;;;;4.60;1.30;;;8.90;99.90;;;;;;5069447;28;20413;-72
2023/04/12 00:12:20;;;;;;;5.17;1.30;;;8.80;99.90;;;;;;5069635;28;20441;-72
2023/04/12 00:14:46;;;;;;;4.53;1.50;;;8.70;99.90;;;;;;5069620;28;20471;-72
2023/04/12 00:17:12;;;;;;;5.23;1.47;;;8.70;99.90;;;;;;5070974;28;20187;-72
2023/04/12 00:19:41;;;;;;;17.10;1.90;;;8.80;99.90;;;;;;5069237;28;20427;-71
2023/04/12 00:22:10;;;;;;;1.10;0.93;;;8.70;99.90;;;;;;5070198;28;20267;-72
2023/04/12 00:24:39;;;;;;;4.07;1.20;;;8.70;99.90;;;;;;5070145;28;20421;-73
2023/04/12 00:27:05;;;;;;;5.50;1.30;;;8.70;99.90;;;;;;5069939;28;20405;-72
2023/04/12 00:29:31;;;;;;;3.37;1.30;;;8.60;99.90;;;;;;5068537;28;20852;-72
2023/04/12 00:31:58;;;;;;;7.87;1.60;;;8.70;99.90;;;;;;5069969;28;20433;-72
2023/04/12 00:34:24;;;;;;;10.53;1.50;;;8.70;99.90;;;;;;5070255;28;21039;-72
2023/04/12 00:36:50;;;;;;;4.37;1.40;;;8.60;99.90;;;;;;5069961;28;20410;-72
2023/04/12 00:39:15;;;;;;;4.97;1.43;;;8.60;99.90;;;;;;5069874;28;20191;-72
2023/04/12 00:41:41;;;;;;;3.67;1.40;;;8.50;99.90;;;;;;5068425;28;20563;-73
2023/04/12 00:44:06;;;;;;;7.73;1.47;;;8.50;99.90;;;;;;5070356;28;20210;-72
2023/04/12 00:46:32;;;;;;;6.20;1.40;;;8.20;99.90;;;;;;5069124;28;20179;-71
2023/04/12 00:48:58;;;;;;;4.47;1.80;;;8.10;99.90;;;;;;5085711;28;20210;-73
2023/04/12 00:51:24;;;;;;;3.10;1.90;;;7.90;99.90;;;;;;5070600;28;20466;-72
2023/04/12 00:53:56;;;;;;;7.87;1.50;;;7.90;99.90;;;;;;5070134;28;20293;-72
2023/04/12 00:56:23;;;;;;;6.50;1.30;;;7.90;99.90;;;;;;5070032;28;20262;-72
2023/04/12 00:58:48;;;;;;;4.13;1.47;;;8.00;99.90;;;;;;5070117;28;20853;-72
2023/04/12 01:01:15;;;;;;;5.73;1.30;;;8.10;99.90;;;;;;5068583;28;20435;-71
2023/04/12 01:03:42;;;;;;;3.30;1.37;;;8.10;99.90;;;;;;5072833;28;20207;-72
2023/04/12 01:06:28;;;;;;;3.77;1.60;;;8.10;99.90;;;;;;5073802;28;20450;-71
2023/04/12 01:09:05;;;;;;;11.17;1.90;;;8.10;99.90;;;;;;5074588;28;20468;-71
2023/04/12 01:11:38;;;;;;;8.60;1.50;;;8.10;99.90;;;;;;5074081;28;20405;-72
2023/04/12 01:14:28;;;;;;;5.13;1.70;;;8.10;99.90;;;;;;5073573;28;20417;-72
2023/04/12 01:16:59;;;;;;;4.80;1.50;;;8.00;99.90;;;;;;5072511;28;20413;-71
2023/04/12 01:19:30;;;;;;;7.67;2.10;;;8.00;99.90;;;;;;5069396;28;21006;-71
2023/04/12 01:22:05;;;;;;;9.10;1.40;;;8.00;99.90;;;;;;5070281;28;20549;-71
2023/04/12 01:25:03;;;;;;;5.80;2.27;;;8.00;99.90;;;;;;5068390;28;20419;-71
2023/04/12 01:27:40;;;;;;;6.13;2.10;;;8.00;99.90;;;;;;5069794;28;20421;-71
2023/04/12 01:30:07;;;;;;;6.00;1.90;;;8.00;99.90;;;;;;5069814;28;20853;-72
2023/04/12 01:32:35;;;;;;;5.73;1.77;;;7.90;99.90;;;;;;5069545;28;20539;-71
2023/04/12 01:35:03;;;;;;;6.60;1.67;;;7.90;99.90;;;;;;5068220;28;20418;-71
2023/04/12 01:37:29;;;;;;;2.20;1.57;;;8.00;99.90;;;;;;5069952;28;20475;-72
2023/04/12 01:39:55;;;;;;;5.60;1.80;;;8.00;99.90;;;;;;5069361;28;20519;-72
2023/04/12 01:42:21;;;;;;;5.37;1.57;;;7.90;99.90;;;;;;5069933;28;20552;-71
2023/04/12 01:44:46;;;;;;;7.67;1.97;;;7.90;99.90;;;;;;5070189;28;20909;-72
2023/04/12 01:47:13;;;;;;;5.07;1.80;;;7.90;99.90;;;;;;5069961;28;20297;-71
2023/04/12 01:50:02;;;;;;;3.67;1.50;;;7.90;99.90;;;;;;5069610;28;20501;-71
2023/04/12 01:52:31;;;;;;;4.53;1.53;;;8.00;99.90;;;;;;5069068;28;20810;-71
2023/04/12 01:55:00;;;;;;;1.70;1.60;;;7.90;99.90;;;;;;5069350;28;20425;-71
2023/04/12 01:57:26;;;;;;;3.57;1.90;;;7.90;99.90;;;;;;5069003;28;20420;-72
2023/04/12 01:59:54;;;;;;;5.57;1.73;;;8.00;99.90;;;;;;5068899;28;20424;-72
2023/04/12 02:02:20;;;;;;;4.10;1.70;;;7.90;99.90;;;;;;5067377;28;20549;-71
2023/04/12 02:04:46;;;;;;;2.40;1.33;;;7.80;99.90;;;;;;5068859;28;20532;-71
2023/04/12 02:07:14;;;;;;;1.47;1.20;;;7.80;99.90;;;;;;5067290;28;20687;-71
2023/04/12 02:09:40;;;;;;;1.87;1.20;;;7.70;99.90;;;;;;5068665;28;20423;-71
2023/04/12 02:12:06;;;;;;;6.93;1.90;;;7.70;99.90;;;;;;5068666;28;20446;-71
2023/04/12 02:14:32;;;;;;;1.53;1.30;;;7.70;99.90;;;;;;5068638;28;20191;-71
2023/04/12 02:16:58;;;;;;;4.20;1.40;;;7.80;99.90;;;;;;5068365;28;20468;-71
2023/04/12 02:19:24;;;;;;;3.50;1.60;;;7.80;99.90;;;;;;5066826;28;20191;-72
2023/04/12 02:21:50;;;;;;;2.97;1.33;;;7.80;99.90;;;;;;5068033;28;20475;-72
2023/04/12 02:24:15;;;;;;;3.83;1.50;;;7.80;99.90;;;;;;5068345;28;20183;-72
2023/04/12 02:26:41;;;;;;;7.33;1.80;;;7.90;99.90;;;;;;5068294;28;20932;-71
2023/04/12 02:29:07;;;;;;;5.13;1.60;;;7.90;99.90;;;;;;5072537;28;20186;-72
2023/04/12 02:31:35;;;;;;;2.43;1.27;;;7.90;99.90;;;;;;5071010;28;20182;-71
2023/04/12 02:34:01;;;;;;;2.40;1.20;;;7.90;99.90;;;;;;5087583;28;20449;-72
2023/04/12 02:36:28;;;;;;;1.40;1.13;;;7.80;99.90;;;;;;5072059;28;20413;-72
2023/04/12 02:38:54;;;;;;;1.60;1.10;;;7.80;99.90;;;;;;5072067;28;20956;-71
2023/04/12 02:41:20;;;;;;;1.30;1.00;;;7.80;99.90;;;;;;5071923;28;20451;-71
2023/04/12 02:43:46;;;;;;;3.20;1.20;;;7.80;99.90;;;;;;5071856;28;20503;-71
2023/04/12 02:46:22;;;;;;;2.07;1.20;;;7.80;99.90;;;;;;5070514;28;21228;-71
2023/04/12 02:48:48;;;;;;;2.77;1.67;;;7.70;99.90;;;;;;5071918;28;20730;-71
2023/04/12 02:51:14;;;;;;;3.23;1.10;;;7.70;99.90;;;;;;5072187;28;20778;-71
2023/04/12 02:53:40;;;;;;;3.23;1.27;;;7.70;99.90;;;;;;5071635;28;20461;-71
2023/04/12 02:56:06;;;;;;;2.50;1.00;;;7.60;99.90;;;;;;5071696;28;20469;-71
2023/04/12 02:58:36;;;;;;;4.23;1.27;;;7.60;99.90;;;;;;5071625;28;20191;-71
2023/04/12 03:01:06;;;;;;;2.70;1.17;;;7.60;99.90;;;;;;5071525;28;20421;-71
2023/04/12 03:03:33;;;;;;;2.20;1.00;;;7.60;99.90;;;;;;5071432;28;20465;-71
2023/04/12 03:05:59;;;;;;;1.47;0.97;;;7.60;99.90;;;;;;5071716;28;20484;-71
2023/04/12 03:08:25;;;;;;;1.20;0.83;;;7.60;99.90;;;;;;5071439;28;20453;-71
2023/04/12 03:10:50;;;;;;;2.70;1.20;;;7.60;99.90;;;;;;5070088;28;20194;-71
2023/04/12 03:13:16;;;;;;;2.97;1.40;;;7.60;99.90;;;;;;5071343;28;20452;-71
2023/04/12 03:15:45;;;;;;;2.97;1.30;;;7.50;99.90;;;;;;5071496;28;20194;-72
2023/04/12 03:18:10;;;;;;;2.60;0.80;;;7.50;99.90;;;;;;5071238;28;20187;-71
2023/04/12 03:20:38;;;;;;;2.43;0.87;;;7.40;99.90;;;;;;5070000;28;20958;-71
2023/04/12 03:23:04;;;;;;;2.30;0.90;;;7.40;99.90;;;;;;5071317;28;20230;-71
2023/04/12 03:25:30;;;;;;;1.87;1.00;;;7.40;99.90;;;;;;5071273;28;20917;-72
2023/04/12 03:27:55;;;;;;;1.00;0.87;;;7.40;99.90;;;;;;5086482;28;20425;-73
2023/04/12 03:30:21;;;;;;;2.10;1.60;;;7.40;99.90;;;;;;5071221;28;20444;-72
2023/04/12 03:32:46;;;;;;;1.37;0.97;;;7.40;99.90;;;;;;5071088;28;20210;-71
2023/04/12 03:35:12;;;;;;;2.13;1.10;;;7.40;99.90;;;;;;5071392;28;20321;-71
2023/04/12 03:37:41;;;;;;;3.90;0.80;;;7.30;99.90;;;;;;5069863;28;20210;-71
2023/04/12 03:40:08;;;;;;;1.40;0.87;;;7.40;99.90;;;;;;5069477;28;20552;-72
2023/04/12 03:42:34;;;;;;;1.73;0.90;;;7.30;99.90;;;;;;5070839;28;20468;-71
2023/04/12 03:45:00;;;;;;;2.43;0.80;;;7.30;99.90;;;;;;5069353;28;20855;-72
2023/04/12 03:47:26;;;;;;;1.40;0.80;;;7.20;99.90;;;;;;5070849;28;20437;-72
2023/04/12 03:49:54;;;;;;;1.87;0.80;;;7.20;99.90;;;;;;5069451;28;20422;-72
2023/04/12 03:52:20;;;;;;;1.40;1.30;;;7.20;99.90;;;;;;5070572;28;20207;-72
2023/04/12 03:54:45;;;;;;;3.30;1.30;;;7.20;99.90;;;;;;5069332;28;20818;-72
2023/04/12 03:57:11;;;;;;;4.00;2.03;;;7.30;99.90;;;;;;5071019;28;20190;-72
2023/04/12 03:59:37;;;;;;;3.13;1.17;;;7.30;99.90;;;;;;5070734;28;20266;-72
2023/04/12 04:02:02;;;;;;;1.90;1.30;;;7.40;99.90;;;;;;5070633;28;20218;-72
2023/04/12 04:04:28;;;;;;;1.10;1.00;;;7.40;99.90;;;;;;5070952;28;20191;-72
2023/04/12 04:06:54;;;;;;;1.00;0.70;;;7.40;99.90;;;;;;5071131;28;20265;-73
2023/04/12 04:09:19;;;;;;;2.70;1.10;;;7.60;99.90;;;;;;5071045;28;20483;-72
2023/04/12 04:11:49;;;;;;;2.97;1.10;;;7.60;99.90;;;;;;5071220;28;20290;-73
2023/04/12 04:14:15;;;;;;;1.47;0.90;;;7.60;99.90;;;;;;5071372;28;20183;-73
2023/04/12 04:16:40;;;;;;;1.97;1.53;;;7.60;99.90;;;;;;5069455;28;20567;-72
2023/04/12 04:19:06;;;;;;;2.80;1.50;;;7.60;99.90;;;;;;5070759;28;20266;-73
2023/04/12 04:21:31;;;;;;;2.13;1.20;;;7.60;99.90;;;;;;5069204;28;21026;-72
2023/04/12 04:24:01;;;;;;;1.60;1.50;;;7.60;99.90;;;;;;5070111;28;20215;-72
2023/04/12 04:26:33;;;;;;;1.67;1.20;;;7.60;99.90;;;;;;5070144;28;20221;-72
2023/04/12 04:29:00;;;;;;;1.33;1.23;;;7.60;99.90;;;;;;5069850;28;20519;-72
2023/04/12 04:31:33;;;;;;;1.50;1.40;;;7.60;99.90;;;;;;5068487;28;20454;-72
2023/04/12 04:34:05;;;;;;;1.80;1.30;;;7.60;99.90;;;;;;5085083;28;20461;-71
2023/04/12 04:36:36;;;;;;;2.70;1.70;;;7.70;99.90;;;;;;5069711;28;20490;-71
2023/04/12 04:39:03;;;;;;;5.33;1.63;;;7.80;99.90;;;;;;5068332;28;20442;-72
2023/04/12 04:41:33;;;;;;;1.63;1.50;;;7.80;99.90;;;;;;5068164;28;20429;-72
2023/04/12 04:43:59;;;;;;;4.80;1.80;;;7.80;99.90;;;;;;5067838;28;21052;-71
2023/04/12 04:46:25;;;;;;;5.20;2.20;;;7.80;99.90;;;;;;5067949;28;20504;-71
2023/04/12 04:48:50;;;;;;;1.90;1.30;;;7.80;99.90;;;;;;5067699;28;20547;-72
2023/04/12 04:51:16;;;;;;;2.60;1.47;;;7.80;99.90;;;;;;5068054;28;20192;-72
2023/04/12 04:53:42;;;;;;;3.70;1.27;;;7.80;99.90;;;;;;5068190;28;20629;-71
2023/04/12 04:56:09;;;;;;;1.43;0.90;;;7.80;99.90;;;;;;5067957;28;20937;-71
2023/04/12 04:58:35;;;;;;;2.03;1.20;;;7.80;99.90;;;;;;5067866;28;20441;-72
2023/04/12 05:01:00;;;;;;;1.97;1.47;;;7.90;99.90;;;;;;5068324;28;20425;-71
2023/04/12 05:03:29;;;;;;;1.60;1.27;;;7.80;99.90;;;;;;5067884;28;20588;-71
2023/04/12 05:05:55;;;;;;;2.90;1.53;;;7.80;99.90;;;;;;5066583;28;20417;-71
2023/04/12 05:08:21;;;;;;;1.50;1.40;;;7.80;99.90;;;;;;5067991;28;20437;-71
2023/04/12 05:10:51;;;;;;;1.30;1.20;;;7.60;99.90;;;;;;5050250;28;20425;-71
2023/04/12 05:13:17;;;;;;;1.70;1.17;;;7.70;99.90;;;;;;5068219;28;20448;-71
2023/04/12 05:15:43;;;;;;;3.10;1.40;;;7.60;99.90;;;;;;5066689;28;20658;-71
2023/04/12 05:18:08;;;;;;;2.20;1.47;;;7.70;99.90;;;;;;5067929;28;20540;-71
2023/04/12 05:20:37;;;;;;;4.10;0.83;;;7.60;99.90;;;;;;5066505;28;20191;-71
2023/04/12 05:23:03;;;;;;;1.27;1.17;;;7.60;99.90;;;;;;5067446;28;20599;-71
2023/04/12 05:25:28;;;;;;;1.13;1.03;;;7.60;99.90;;;;;;5067812;28;20432;-71
2023/04/12 05:27:54;;;;;;;1.50;1.03;;;7.60;99.90;;;;;;5066338;28;20179;-71
2023/04/12 05:30:20;;;;;;;1.10;1.00;;;7.50;99.90;;;;;;5082872;28;20658;-71
2023/04/12 05:32:45;;;;;;;1.97;1.40;;;7.60;99.90;;;;;;5065883;28;20651;-71
2023/04/12 05:35:11;;;;;;;1.20;1.10;;;7.60;99.90;;;;;;5066025;28;20190;-71
2023/04/12 05:37:37;;;;;;;1.10;0.87;;;7.60;99.90;;;;;;5067630;28;20613;-71
2023/04/12 05:40:05;;;;;;;2.70;1.10;;;7.70;99.90;;;;;;5067772;28;20619;-72
2023/04/12 05:42:31;;;;;;;1.47;1.37;;;7.70;99.90;;;;;;5066185;28;20305;-72
2023/04/12 05:44:56;;;;;;;2.10;0.97;;;7.70;99.90;;;;;;5068062;28;20493;-71
2023/04/12 05:47:22;;;;;;;1.20;0.90;;;7.80;99.90;;;;;;5067606;28;20180;-71
2023/04/12 05:49:47;;;;;;;1.10;1.00;;;7.80;99.90;;;;;;5066559;28;20930;-71
2023/04/12 05:52:13;;;;;;;3.07;1.23;;;7.80;99.90;;;;;;5066509;28;20241;-71
2023/04/12 05:54:39;;;;;;;3.00;1.90;;;7.80;99.90;;;;;;5068278;28;20191;-70
2023/04/12 05:57:04;;;;;;;1.10;0.73;;;7.80;99.90;;;;;;5066296;28;20270;-70
2023/04/12 05:59:30;;;;;;;1.97;1.47;;;7.80;99.90;;;;;;5066430;28;20195;-72
2023/04/12 06:01:56;;;;;;;1.10;0.80;;;7.90;99.90;;;;;;5065311;28;20647;-72
2023/04/12 06:04:22;;;;;;;0.70;0.60;;;7.90;99.90;;;;;;5066333;28;20183;-72
2023/04/12 06:06:48;;;;;;;0.80;0.80;;;7.80;99.90;;;;;;5067783;28;20422;-72
2023/04/12 06:09:14;;;;;;;4.70;1.10;;;7.80;99.90;;;;;;5067550;28;20249;-72
2023/04/12 06:11:40;;;;;;;1.97;1.10;;;7.80;99.90;;;;;;5067759;28;20413;-72
2023/04/12 06:14:07;;;;;;;0.90;0.70;;;7.80;99.90;;;;;;5065787;28;20421;-71
2023/04/12 06:16:32;;;;;;;1.83;1.00;;;7.90;99.90;;;;;;5065658;28;20689;-71
2023/04/12 06:18:58;;;;;;;2.13;1.20;;;7.90;99.90;;;;;;5065497;28;20452;-71
2023/04/12 06:21:24;;;;;;;1.30;0.80;;;8.00;99.90;;;;;;5065504;28;20187;-71
2023/04/12 06:23:49;;;;;;;1.10;0.80;;;8.00;99.90;;;;;;5066675;28;20214;-71
2023/04/12 06:26:15;;;;;;;0.77;0.60;;;8.00;99.90;;;;;;5067026;28;20418;-71
2023/04/12 06:28:41;;;;;;;1.03;0.70;;;8.00;99.90;;;;;;5068575;28;20186;-72
2023/04/12 06:31:06;;;;;;;0.70;0.60;;;7.90;99.90;;;;;;5067629;28;20707;-71
2023/04/12 06:33:32;;;;;;;1.53;0.70;;;8.00;99.90;;;;;;5082820;28;20558;-71
2023/04/12 06:35:57;;;;;;;1.20;0.77;;;7.90;99.90;;;;;;5067264;28;20183;-71
2023/04/12 06:38:23;;;;;;;0.80;0.70;;;8.00;99.90;;;;;;5066871;28;20194;-71
2023/04/12 06:40:49;;;;;;;0.80;0.70;;;8.00;99.90;;;;;;5066828;28;20222;-71
2023/04/12 06:43:19;;;;;;;1.00;0.87;;;8.10;99.90;;;;;;5066596;28;20661;-71
2023/04/12 06:45:45;;;;;;;0.87;0.77;;;8.10;99.90;;;;;;5083010;28;20179;-71
2023/04/12 06:48:10;;;;;;;1.07;0.90;;;8.00;99.90;;;;;;5065044;28;20456;-71
2023/04/12 06:50:36;;;;;;;4.33;1.03;;;8.00;99.90;;;;;;5067049;28;20421;-71
2023/04/12 06:53:02;;;;;;;2.40;0.60;;;8.00;99.90;;;;;;5066848;28;20256;-71
2023/04/12 06:55:28;;;;;;;0.90;0.77;;;8.10;99.90;;;;;;5066217;28;20187;-71
2023/04/12 06:57:54;;;;;;;1.40;0.70;;;8.00;99.90;;;;;;5066749;28;20422;-71
2023/04/12 07:00:20;;;;;;;0.80;0.70;;;8.10;99.90;;;;;;5067220;28;20421;-71
2023/04/12 07:02:45;;;;;;;0.93;0.87;;;8.10;99.90;;;;;;5067046;28;21057;-71
2023/04/12 07:05:11;;;;;;;0.80;0.70;;;8.10;99.90;;;;;;5067154;28;20413;-71
2023/04/12 07:07:37;;;;;;;2.87;1.53;;;8.10;99.90;;;;;;5066881;28;20262;-71
2023/04/12 07:10:03;;;;;;;1.10;0.97;;;8.20;99.90;;;;;;5066812;28;20267;-70
2023/04/12 07:12:29;;;;;;;3.07;0.77;;;8.20;99.90;;;;;;5067922;28;20261;-71
2023/04/12 07:14:54;;;;;;;1.00;0.90;;;8.20;99.90;;;;;;5071715;28;20948;-71
2023/04/12 07:17:20;;;;;;;1.10;0.63;;;8.30;99.90;;;;;;5072137;28;20421;-71
2023/04/12 07:19:47;;;;;;;1.73;0.90;;;8.30;99.90;;;;;;5071328;28;20179;-71
2023/04/12 07:22:13;;;;;;;1.53;0.97;;;8.30;99.90;;;;;;5072339;28;20773;-71
2023/04/12 07:24:39;;;;;;;0.97;0.63;;;8.30;99.90;;;;;;5072369;28;20436;-71
2023/04/12 07:27:05;;;;;;;0.90;0.60;;;8.40;99.90;;;;;;5070306;28;20186;-72
2023/04/12 07:29:30;;;;;;;3.10;0.90;;;8.40;99.90;;;;;;5086747;28;20217;-71
2023/04/12 07:31:58;;;;;;;1.03;0.93;;;8.50;99.90;;;;;;5071296;28;20433;-71
2023/04/12 07:34:24;;;;;;;1.10;0.70;;;8.50;99.90;;;;;;5072145;28;20290;-71
2023/04/12 07:36:49;;;;;;;1.43;0.77;;;8.50;99.90;;;;;;5070469;28;21312;-71
2023/04/12 07:39:15;;;;;;;1.23;0.83;;;8.60;99.90;;;;;;5085415;28;20230;-71
2023/04/12 07:41:45;;;;;;;0.90;0.80;;;8.70;99.90;;;;;;5069737;28;20647;-71
2023/04/12 07:44:10;;;;;;;2.20;0.90;;;8.60;99.90;;;;;;5068312;28;20373;-71
2023/04/12 07:46:37;;;;;;;26.40;12.63;;;8.70;99.90;;;;;;5069573;28;20509;-71
2023/04/12 07:49:02;;;;;;;2.20;1.03;;;8.80;99.90;;;;;;5069580;28;20182;-71
2023/04/12 07:51:28;;;;;;;2.57;1.33;;;8.90;99.90;;;;;;5069577;28;20433;-72
2023/04/12 07:53:54;;;;;;;1.17;0.83;;;8.90;99.90;;;;;;5069551;28;20572;-71
2023/04/12 07:56:19;;;;;;;0.90;0.83;;;9.00;99.90;;;;;;5067962;28;20197;-71
2023/04/12 07:58:45;;;;;;;1.07;0.97;;;9.00;99.90;;;;;;5067696;28;20194;-71
2023/04/12 08:01:12;;;;;;;2.10;0.80;;;9.00;99.90;;;;;;5068998;28;20187;-71
2023/04/12 08:03:38;;;;;;;2.07;0.90;;;9.20;99.90;;;;;;5068833;28;20216;-71
2023/04/12 08:06:04;;;;;;;0.80;0.80;;;9.20;99.90;;;;;;5069113;28;20942;-71
2023/04/12 08:08:30;;;;;;;1.83;0.80;;;9.40;99.90;;;;;;5067308;28;20846;-71
2023/04/12 08:10:55;;;;;;;1.70;1.60;;;9.40;99.90;;;;;;5067335;28;20905;-71
2023/04/12 08:13:21;;;;;;;1.93;1.00;;;9.40;99.90;;;;;;5068822;28;20502;-71
2023/04/12 08:15:47;;;;;;;2.23;1.20;;;9.50;99.90;;;;;;5068775;28;20228;-71
2023/04/12 08:18:12;;;;;;;1.40;0.73;;;9.40;99.90;;;;;;5068943;28;20232;-72
2023/04/12 08:20:42;;;;;;;1.30;1.07;;;9.50;99.90;;;;;;5068886;28;20189;-71
2023/04/12 08:23:09;;;;;;;1.50;1.00;;;9.60;99.90;;;;;;5068858;28;20207;-71
2023/04/12 08:25:35;;;;;;;3.13;0.80;;;9.70;99.90;;;;;;5067814;28;21017;-71
2023/04/12 08:28:02;;;;;;;2.50;0.83;;;9.80;99.90;;;;;;5066976;28;20426;-71
2023/04/12 08:30:28;;;;;;;7.10;1.73;;;9.90;99.90;;;;;;5067059;28;20187;-71
2023/04/12 08:32:53;;;;;;;2.20;0.80;;;9.90;99.90;;;;;;5068761;28;20440;-71
2023/04/12 08:35:19;;;;;;;1.70;0.93;;;9.90;99.90;;;;;;5067215;28;20189;-71
2023/04/12 08:37:45;;;;;;;1.77;1.03;;;10.20;99.90;;;;;;5068947;28;20206;-71
2023/04/12 08:40:11;;;;;;;3.93;1.47;;;10.30;99.90;;;;;;5068585;28;20235;-71
2023/04/12 08:42:37;;;;;;;1.37;0.90;;;10.40;99.90;;;;;;5068329;28;20691;-71
2023/04/12 08:45:07;;;;;;;1.53;0.83;;;10.50;99.90;;;;;;5067068;28;20420;-72
2023/04/12 08:47:35;;;;;;;7.63;1.07;;;10.40;99.90;;;;;;5068557;28;20413;-72
2023/04/12 08:50:02;;;;;;;1.20;1.10;;;10.60;99.90;;;;;;5068589;28;20424;-72
2023/04/12 08:52:28;;;;;;;1.67;1.30;;;10.60;99.90;;;;;;5068656;28;20434;-71
2023/04/12 08:54:55;;;;;;;3.40;1.07;;;10.40;99.90;;;;;;5066961;28;20451;-71
2023/04/12 08:57:20;;;;;;;2.33;1.10;;;10.40;99.90;;;;;;5050305;28;20191;-72
2023/04/12 08:59:49;;;;;;;2.47;1.07;;;10.30;99.90;;;;;;5068365;28;20425;-72
2023/04/12 09:02:15;;;;;;;2.00;1.07;;;10.50;99.90;;;;;;5083264;28;20473;-71
2023/04/12 09:04:51;;;;;;;1.97;1.00;;;10.50;99.90;;;;;;5068000;28;20414;-72
2023/04/12 09:07:16;;;;;;;2.60;1.50;;;10.60;99.90;;;;;;5066453;28;20738;-71
2023/04/12 09:09:46;;;;;;;2.17;1.33;;;10.50;99.90;;;;;;5067670;28;20505;-71
2023/04/12 09:12:14;;;;;;;1.93;1.10;;;10.60;99.90;;;;;;5067641;28;20328;-71
2023/04/12 09:14:42;;;;;;;2.43;1.03;;;10.60;99.90;;;;;;5083055;28;20426;-71
2023/04/12 09:17:28;;;;;;;2.13;1.00;;;10.60;99.90;;;;;;5082978;28;20954;-71
2023/04/12 09:19:55;;;;;;;3.17;1.50;;;10.70;99.90;;;;;;5067172;28;20989;-71
2023/04/12 09:22:38;;;;;;;2.10;1.00;;;10.90;99.90;;;;;;5065627;28;20442;-71
2023/04/12 09:25:05;;;;;;;2.37;1.13;;;10.80;99.90;;;;;;5066128;28;20917;-71
2023/04/12 09:27:48;;;;;;;1.80;1.17;;;10.80;99.90;;;;;;5049248;28;20479;-71
2023/04/12 09:30:15;;;;;;;2.80;1.30;;;10.60;99.90;;;;;;5067516;28;20412;-71
2023/04/12 09:32:41;;;;;;;3.73;1.40;;;10.70;99.90;;;;;;5065851;28;20500;-72
2023/04/12 09:35:07;;;;;;;2.07;1.20;;;10.80;99.90;;;;;;5066973;28;20426;-72
2023/04/12 09:37:32;;;;;;;1.40;1.30;;;11.00;99.90;;;;;;5066878;28;20241;-73
2023/04/12 09:40:06;;;;;;;1.57;1.33;;;11.00;99.90;;;;;;5067569;28;20818;-72
2023/04/12 09:42:47;;;;;;;1.23;1.13;;;11.20;99.90;;;;;;5067388;28;20209;-72
2023/04/12 09:45:25;;;;;;;1.23;1.10;;;11.30;99.90;;;;;;5067470;28;21031;-71
2023/04/12 09:47:51;;;;;;;1.30;1.20;;;11.40;99.90;;;;;;5067800;28;20420;-72
2023/04/12 09:50:27;;;;;;;1.20;1.00;;;11.40;99.90;;;;;;5082917;28;20889;-72
2023/04/12 09:52:57;;;;;;;3.13;1.37;;;11.50;99.90;;;;;;5067823;28;20434;-72
2023/04/12 09:55:24;;;;;;;3.43;1.50;;;11.70;99.90;;;;;;5067821;28;20480;-72
2023/04/12 09:57:52;;;;;;;1.33;1.23;;;11.90;99.90;;;;;;5065939;28;20435;-72
2023/04/12 10:00:21;;;;;;;1.37;1.13;;;12.00;99.90;;;;;;5067090;28;20502;-71
2023/04/12 10:02:49;;;;;;;3.20;1.20;;;12.00;99.90;;;;;;5066840;28;21300;-72
2023/04/12 10:05:20;;;;;;;2.60;1.30;;;12.00;99.90;;;;;;5067301;28;20407;-72
2023/04/12 10:07:46;;;;;;;2.60;1.50;;;12.10;99.90;;;;;;5067238;28;20424;-70
2023/04/12 10:10:14;;;;;;;3.67;1.23;;;12.10;99.90;;;;;;5067160;28;20500;-71
2023/04/12 10:12:41;;;;;;;6.80;1.73;;;11.90;99.90;;;;;;5066955;28;20887;-71
2023/04/12 10:15:12;;;;;;;4.17;1.50;;;11.90;99.90;;;;;;5066717;28;20525;-71
2023/04/12 10:17:50;;;;;;;2.70;1.47;;;11.90;99.90;;;;;;5066761;28;20482;-71
2023/04/12 10:20:17;;;;;;;2.87;1.30;;;12.10;99.90;;;;;;5066637;28;20409;-71
2023/04/12 10:22:48;;;;;;;1.70;1.20;;;12.00;99.90;;;;;;5064878;28;20503;-71
2023/04/12 10:25:16;;;;;;;11.03;1.57;;;12.20;99.90;;;;;;5065249;28;20419;-71
2023/04/12 10:27:43;;;;;;;2.20;1.17;;;12.40;99.90;;;;;;5066625;28;20932;-70
2023/04/12 10:30:26;;;;;;;1.70;1.30;;;12.50;99.90;;;;;;5066612;28;20420;-71
2023/04/12 10:33:04;;;;;;;1.73;1.10;;;12.60;99.90;;;;;;5066341;28;20443;-70
2023/04/12 10:35:58;;;;;;;2.30;1.13;;;12.70;99.90;;;;;;5066799;28;20422;-71
2023/04/12 10:38:26;;;;;;;2.20;1.43;;;12.90;99.90;;;;;;5066153;28;20456;-71
2023/04/12 10:41:12;;;;;;;1.67;1.07;;;13.00;99.90;;;;;;5066309;28;20868;-71
2023/04/12 10:43:39;;;;;;;7.07;1.97;;;13.00;99.90;;;;;;5066291;28;20466;-72
2023/04/12 10:46:05;;;;;;;2.20;0.93;;;12.90;99.90;;;;;;5066514;28;20457;-72
2023/04/12 10:48:49;;;;;;;1.43;0.67;;;12.90;99.90;;;;;;5069798;28;20495;-72
2023/04/12 10:51:26;;;;;;;2.80;0.70;;;13.00;99.90;;;;;;5070688;28;20413;-71
2023/04/12 10:54:15;;;;;;;6.63;1.00;;;13.00;99.90;;;;;;5070293;28;20536;-72
2023/04/12 10:56:42;;;;;;;3.77;0.80;;;12.90;99.90;;;;;;5069480;28;20447;-72
2023/04/12 10:59:09;;;;;;;1.73;0.70;;;13.00;99.90;;;;;;5070244;28;20469;-72
2023/04/12 11:01:35;;;;;;;3.70;0.77;;;13.10;99.90;;;;;;5070247;28;20424;-71
2023/04/12 11:04:14;;;;;;;3.40;0.70;;;13.20;99.90;;;;;;5068564;28;20504;-72
2023/04/12 11:06:56;;;;;;;1.40;0.90;;;13.20;99.90;;;;;;5068829;28;20412;-71
2023/04/12 11:09:36;;;;;;;1.47;0.87;;;13.30;99.90;;;;;;5070175;28;20413;-71
2023/04/12 11:12:05;;;;;;;1.67;0.80;;;13.40;99.90;;;;;;5070439;28;20444;-73
2023/04/12 11:14:38;;;;;;;1.40;0.90;;;13.50;99.90;;;;;;5070728;28;20450;-72
2023/04/12 11:17:15;;;;;;;0.90;0.80;;;13.50;99.90;;;;;;5069059;28;20510;-72
2023/04/12 11:19:53;;;;;;;2.20;0.80;;;13.70;99.90;;;;;;5070748;28;20423;-72
2023/04/12 11:22:20;;;;;;;1.93;0.70;;;13.90;99.90;;;;;;5070572;28;20446;-72
2023/04/12 11:24:53;;;;;;;0.93;0.83;;;13.90;99.90;;;;;;5068668;28;21053;-72
2023/04/12 11:27:21;;;;;;;1.10;0.80;;;14.00;99.90;;;;;;5069736;28;20443;-71
2023/04/12 11:29:51;;;;;;;2.20;0.60;;;14.00;99.90;;;;;;5069726;28;20413;-72
2023/04/12 11:32:17;;;;;;;1.40;0.60;;;14.30;99.90;;;;;;5068235;28;20463;-72
2023/04/12 11:34:45;;;;;;;7.27;1.10;;;14.50;99.90;;;;;;5069685;28;20504;-72
2023/04/12 11:37:11;;;;;;;1.00;0.60;;;14.70;99.90;;;;;;5067758;28;20426;-73
2023/04/12 11:39:44;;;;;;;1.60;0.50;;;14.30;99.90;;;;;;5067888;28;20440;-72
2023/04/12 11:42:21;;;;;;;1.73;0.60;;;14.20;99.90;;;;;;5069100;28;20425;-71
2023/04/12 11:44:47;;;;;;;1.43;0.60;;;14.10;99.90;;;;;;5069316;28;20424;-71
2023/04/12 11:47:15;;;;;;;1.20;0.60;;;14.20;99.90;;;;;;5069356;28;20421;-71
2023/04/12 11:50:07;;;;;;;1.17;0.57;;;14.20;99.90;;;;;;5084392;28;20418;-71
2023/04/12 11:52:34;;;;;;;6.67;1.37;;;14.30;99.90;;;;;;5071312;28;20787;-71
2023/04/12 11:55:05;;;;;;;0.80;0.53;;;14.00;99.90;;;;;;5070425;28;21003;-71
2023/04/12 11:57:32;;;;;;;2.43;0.50;;;14.30;99.90;;;;;;5070686;28;20981;-71
2023/04/12 11:59:59;;;;;;;2.50;0.50;;;14.70;99.90;;;;;;5069517;28;20461;-71
2023/04/12 12:02:25;;;;;;;0.80;0.50;;;14.70;99.90;;;;;;5069759;28;20441;-71
2023/04/12 12:04:51;;;;;;;1.27;0.77;;;14.50;99.90;;;;;;5069501;28;20416;-71
2023/04/12 12:07:16;;;;;;;1.93;0.90;;;14.40;99.90;;;;;;5067485;28;20430;-72
2023/04/12 12:09:43;;;;;;;1.00;0.40;;;14.60;99.90;;;;;;5069090;28;20458;-71
2023/04/12 12:12:12;;;;;;;1.13;0.60;;;14.50;99.90;;;;;;5068730;28;20438;-71
2023/04/12 12:14:39;;;;;;;2.60;0.70;;;14.50;99.90;;;;;;5068686;28;20418;-71
2023/04/12 12:17:15;;;;;;;1.07;0.70;;;14.70;99.90;;;;;;5068916;28;20448;-71
2023/04/12 12:19:43;;;;;;;2.60;0.70;;;14.70;99.90;;;;;;5067119;28;20485;-71
2023/04/12 12:22:16;;;;;;;1.83;0.60;;;14.50;99.90;;;;;;5068599;28;20487;-71
2023/04/12 12:24:57;;;;;;;1.57;0.77;;;14.50;99.90;;;;;;5066868;28;20452;-71
2023/04/12 12:27:47;;;;;;;1.90;0.63;;;14.60;99.90;;;;;;5069025;28;20798;-71
2023/04/12 12:30:16;;;;;;;0.80;0.50;;;14.80;99.90;;;;;;5068587;28;21006;-71
2023/04/12 12:32:42;;;;;;;0.90;0.70;;;14.80;99.90;;;;;;5068570;28;20445;-71
2023/04/12 12:35:12;;;;;;;0.80;0.50;;;14.90;99.90;;;;;;5068714;28;20425;-72
2023/04/12 12:37:48;;;;;;;0.97;0.53;;;14.80;99.90;;;;;;5068294;28;20414;-71
2023/04/12 12:40:15;;;;;;;2.10;0.70;;;15.00;99.90;;;;;;5068064;28;20459;-70
2023/04/12 12:42:53;;;;;;;1.57;0.50;;;15.10;99.90;;;;;;5067944;28;20468;-70
2023/04/12 12:45:23;;;;;;;1.63;0.60;;;15.20;99.90;;;;;;5068373;28;20417;-70
2023/04/12 12:48:03;;;;;;;1.83;0.83;;;15.40;99.90;;;;;;5066435;28;20429;-72
2023/04/12 12:50:30;;;;;;;1.30;0.70;;;15.40;99.90;;;;;;5068205;28;20410;-72
2023/04/12 12:52:56;;;;;;;2.30;0.60;;;15.20;99.90;;;;;;5068012;28;20933;-71
2023/04/12 12:55:23;;;;;;;2.13;0.47;;;15.10;99.90;;;;;;5067956;28;20517;-71
2023/04/12 12:57:52;;;;;;;0.80;0.40;;;15.00;99.90;;;;;;5068019;28;20421;-71
2023/04/12 13:00:19;;;;;;;1.70;0.50;;;15.00;99.90;;;;;;5068009;28;20992;-71